Time;durP1;ratioP1;P1;durP2;ratioP2;P2;SDS_P1;SDS_P2;PMS_P1;PMS_P2;Temp;Humidity;BMP_temperature;BMP_pressure;BME280_temperature;BME280_humidity;BME280_pressure;Samples;Min_cycle;Max_cycle;Signal;HPM_P1;HPM_P2
2022/09/28 01:26:54;;;;;;;;;;;19.00;76.70;;;;;;6092876;23;20026;-82
2022/09/28 01:29:46;;;;;;;;;;;19.00;75.20;;;;;;6096182;23;20344;-82
2022/09/28 01:32:22;;;;;;;;;;;19.00;73.80;;;;;;6089969;23;19972;-82
2022/09/28 01:34:51;;;;;;;;;;;19.10;73.80;;;;;;6095197;23;20241;-82
2022/09/28 01:37:19;;;;;;;;;;;19.10;72.50;;;;;;6094906;23;19921;-82
2022/09/28 01:39:46;;;;;;;;;;;19.20;73.00;;;;;;6070522;23;19976;-82
2022/09/28 01:42:14;;;;;;;;;;;19.30;71.60;;;;;;6096435;23;19956;-81
2022/09/28 01:44:41;;;;;;;;;;;19.20;69.90;;;;;;6071176;23;19901;-81
2022/09/28 01:47:08;;;;;;;;;;;19.30;71.80;;;;;;6071130;23;19901;-81
2022/09/28 01:49:37;;;;;;;;;;;19.30;72.70;;;;;;6071125;23;20240;-81
2022/09/28 01:52:15;;;;;;;;;;;19.30;71.60;;;;;;6071396;23;19975;-81
2022/09/28 01:54:47;;;;;;;;;;;19.30;71.80;;;;;;6071544;23;20228;-82
2022/09/28 01:57:16;;;;;;;;;;;19.40;70.60;;;;;;6071166;23;19909;-82
2022/09/28 01:59:44;;;;;;;;;;;19.40;71.90;;;;;;6097077;23;20322;-82
2022/09/28 02:02:12;;;;;;;;;;;19.40;70.20;;;;;;6071428;23;19901;-82
2022/09/28 02:04:43;;;;;;;;;;;19.50;71.00;;;;;;6071137;23;19925;-82
2022/09/28 02:07:11;;;;;;;;;;;19.50;67.40;;;;;;6096280;23;19907;-82
2022/09/28 02:09:39;;;;;;;;;;;19.50;67.80;;;;;;6071219;23;19911;-82
2022/09/28 02:12:09;;;;;;;;;;;19.50;68.50;;;;;;6071264;23;19905;-82
2022/09/28 02:14:35;;;;;;;;;;;19.60;69.50;;;;;;6070812;23;19905;-82
2022/09/28 02:17:02;;;;;;;;;;;19.60;69.50;;;;;;6071023;23;20321;-82
2022/09/28 02:19:29;;;;;;;;;;;19.70;69.60;;;;;;6070752;23;19916;-83
2022/09/28 02:21:56;;;;;;;;;;;19.70;67.80;;;;;;6096425;23;19901;-82
2022/09/28 02:24:25;;;;;;;;;;;19.70;66.80;;;;;;6097071;23;19909;-82
2022/09/28 02:26:51;;;;;;;;;;;19.80;67.40;;;;;;6097054;23;20221;-82
2022/09/28 02:29:18;;;;;;;;;;;19.80;67.40;;;;;;6097229;23;19908;-82
2022/09/28 02:31:45;;;;;;;;;;;19.70;60.30;;;;;;6123502;23;19982;-82
2022/09/28 02:34:11;;;;;;;;;;;19.80;61.70;;;;;;6122957;23;20329;-81
2022/09/28 02:36:38;;;;;;;;;;;19.90;66.20;;;;;;6097613;23;19964;-81
2022/09/28 02:39:05;;;;;;;;;;;19.80;66.50;;;;;;6097267;23;19912;-81
2022/09/28 02:41:50;;;;;;;;;;;19.90;67.30;;;;;;6124603;23;19976;-82
2022/09/28 02:44:16;;;;;;;;;;;20.00;67.40;;;;;;6127238;23;19905;-78
2022/09/28 02:46:52;;;;;;;;;;;20.00;66.90;;;;;;6126960;23;19971;-79
2022/09/28 02:49:27;;;;;;;;;;;19.90;66.70;;;;;;6128090;23;19935;-81
2022/09/28 02:52:02;;;;;;;;;;;19.90;67.40;;;;;;6103890;23;19919;-79
2022/09/28 02:54:29;;;;;;;;;;;19.80;68.90;;;;;;6102083;23;19900;-79
2022/09/28 02:56:56;;;;;;;;;;;19.70;68.20;;;;;;6128307;23;20028;-77
2022/09/28 02:59:39;;;;;;;;;;;19.50;68.50;;;;;;6100621;23;20340;-80
2022/09/28 03:02:24;;;;;;;;;;;19.50;67.20;;;;;;6075994;23;19939;-79
2022/09/28 03:05:00;;;;;;;;;;;19.50;68.10;;;;;;6127360;23;19924;-79
2022/09/28 03:07:28;;;;;;;;;;;19.40;68.20;;;;;;6133023;23;19907;-79
2022/09/28 03:09:55;;;;;;;;;;;19.40;69.50;;;;;;6102448;23;20232;-80
2022/09/28 03:12:22;;;;;;;;;;;19.40;69.50;;;;;;6127673;23;19901;-80
2022/09/28 03:15:04;;;;;;;;;;;19.40;69.40;;;;;;6103038;23;19907;-77
2022/09/28 03:17:31;;;;;;;;;;;19.50;69.50;;;;;;6103115;23;19905;-78
2022/09/28 03:19:57;;;;;;;;;;;19.60;68.30;;;;;;6127498;23;19916;-80
2022/09/28 03:22:24;;;;;;;;;;;19.50;66.50;;;;;;6127150;23;19991;-79
2022/09/28 03:24:51;;;;;;;;;;;19.50;66.60;;;;;;6127275;23;19972;-79
2022/09/28 03:27:17;;;;;;;;;;;19.70;66.40;;;;;;6102146;23;19929;-80
2022/09/28 03:29:44;;;;;;;;;;;19.70;67.30;;;;;;6129637;23;19951;-77
2022/09/28 03:32:11;;;;;;;;;;;19.70;68.90;;;;;;6127877;23;20276;-78
2022/09/28 03:34:37;;;;;;;;;;;19.70;71.70;;;;;;6127437;23;19908;-75
2022/09/28 03:37:04;;;;;;;;;;;19.60;72.10;;;;;;6127915;23;19905;-77
2022/09/28 03:39:30;;;;;;;;;;;19.50;73.60;;;;;;6127926;23;19983;-77
2022/09/28 03:41:59;;;;;;;;;;;19.50;73.40;;;;;;6126888;23;19901;-77
2022/09/28 03:44:25;;;;;;;;;;;19.40;74.20;;;;;;6126772;23;19968;-79
2022/09/28 03:46:52;;;;;;;;;;;19.30;73.60;;;;;;6126640;23;19971;-77
2022/09/28 03:49:19;;;;;;;;;;;19.40;73.00;;;;;;6126902;23;19901;-78
2022/09/28 03:51:46;;;;;;;;;;;19.30;72.60;;;;;;6127835;23;19964;-80
2022/09/28 03:54:12;;;;;;;;;;;19.30;72.40;;;;;;6127640;23;19998;-76
2022/09/28 03:56:39;;;;;;;;;;;19.30;72.80;;;;;;6126554;23;19901;-79
2022/09/28 03:59:06;;;;;;;;;;;19.30;73.40;;;;;;6127042;23;19909;-76
2022/09/28 04:01:33;;;;;;;;;;;19.20;72.50;;;;;;6127722;23;19905;-77
2022/09/28 04:03:59;;;;;;;;;;;19.20;73.00;;;;;;6127470;23;19901;-78
2022/09/28 04:06:26;;;;;;;;;;;19.20;73.60;;;;;;6127293;23;19980;-78
2022/09/28 04:08:52;;;;;;;;;;;19.20;73.40;;;;;;6127003;23;19901;-78
2022/09/28 04:11:19;;;;;;;;;;;19.20;73.50;;;;;;6126159;23;19901;-79
2022/09/28 04:13:48;;;;;;;;;;;19.20;72.90;;;;;;6126973;23;19937;-77
2022/09/28 04:16:16;;;;;;;;;;;19.10;73.90;;;;;;6125031;23;19912;-76
2022/09/28 04:18:43;;;;;;;;;;;19.00;72.40;;;;;;6097655;23;19913;-77
2022/09/28 04:21:14;;;;;;;;;;;19.00;72.50;;;;;;6097648;23;19912;-78
2022/09/28 04:23:40;;;;;;;;;;;19.00;72.80;;;;;;6123178;23;19908;-79
2022/09/28 04:26:08;;;;;;;;;;;19.00;72.70;;;;;;6123294;23;19992;-79
2022/09/28 04:31:19;;;;;;;;;;;19.10;73.40;;;;;;6122963;23;19907;-76
2022/09/28 04:33:46;;;;;;;;;;;19.20;72.80;;;;;;6123408;23;20321;-74
2022/09/28 04:36:13;;;;;;;;;;;19.10;73.00;;;;;;6122906;23;20317;-77
2022/09/28 04:38:39;;;;;;;;;;;19.20;74.80;;;;;;6122613;23;19955;-76
2022/09/28 04:41:06;;;;;;;;;;;19.20;74.80;;;;;;6123296;23;19964;-79
2022/09/28 04:43:33;;;;;;;;;;;19.20;73.40;;;;;;6122902;23;19905;-78
2022/09/28 04:46:00;;;;;;;;;;;19.20;73.20;;;;;;6097259;23;19987;-76
2022/09/28 04:48:26;;;;;;;;;;;19.20;74.40;;;;;;6096993;23;19912;-76
2022/09/28 04:50:54;;;;;;;;;;;19.00;73.20;;;;;;6123023;23;19924;-76
2022/09/28 04:53:20;;;;;;;;;;;19.00;74.30;;;;;;6122239;23;19905;-77
2022/09/28 04:56:03;;;;;;;;;;;19.00;74.40;;;;;;6122848;23;20385;-76
2022/09/28 04:58:30;;;;;;;;;;;19.00;73.80;;;;;;6096198;23;19913;-74
2022/09/28 05:00:57;;;;;;;;;;;19.10;75.00;;;;;;6122234;23;19901;-73
2022/09/28 05:03:23;;;;;;;;;;;19.10;76.70;;;;;;6122325;23;19916;-76
2022/09/28 05:05:50;;;;;;;;;;;19.20;76.00;;;;;;6096564;23;19905;-76
2022/09/28 05:08:17;;;;;;;;;;;19.10;75.70;;;;;;6122512;23;19905;-75
2022/09/28 05:10:43;;;;;;;;;;;19.10;75.90;;;;;;6070220;23;19988;-80
2022/09/28 05:13:10;;;;;;;;;;;19.00;76.90;;;;;;6123205;23;19901;-77
2022/09/28 05:15:37;;;;;;;;;;;19.00;77.60;;;;;;6123059;23;20248;-76
2022/09/28 05:18:04;;;;;;;;;;;18.90;76.70;;;;;;6122554;23;20316;-77
2022/09/28 05:20:31;;;;;;;;;;;18.90;77.10;;;;;;6122660;23;19912;-76
2022/09/28 05:22:57;;;;;;;;;;;18.80;77.00;;;;;;6122759;23;19905;-76
2022/09/28 05:25:24;;;;;;;;;;;18.80;77.60;;;;;;6096504;23;20268;-76
2022/09/28 05:28:00;;;;;;;;;;;18.80;78.90;;;;;;6122629;23;19912;-77
2022/09/28 05:30:27;;;;;;;;;;;18.70;79.00;;;;;;6122265;23;19905;-72
2022/09/28 05:32:53;;;;;;;;;;;18.70;78.80;;;;;;6121731;23;19912;-75
2022/09/28 05:35:20;;;;;;;;;;;18.60;78.30;;;;;;6122040;23;19905;-75
2022/09/28 05:37:46;;;;;;;;;;;18.50;78.30;;;;;;6121697;23;20602;-74
2022/09/28 05:40:13;;;;;;;;;;;18.50;78.40;;;;;;6121966;23;19936;-74
2022/09/28 05:42:40;;;;;;;;;;;18.50;79.10;;;;;;6122369;23;19936;-77
2022/09/28 05:45:07;;;;;;;;;;;18.50;79.60;;;;;;6122134;23;19900;-75
2022/09/28 05:47:37;;;;;;;;;;;18.40;80.30;;;;;;6121897;23;19905;-74
2022/09/28 05:50:04;;;;;;;;;;;18.40;80.00;;;;;;6122605;23;19912;-76
2022/09/28 05:52:31;;;;;;;;;;;18.40;80.40;;;;;;6121117;23;19907;-75
2022/09/28 05:54:57;;;;;;;;;;;18.30;80.40;;;;;;6122033;23;20240;-73
2022/09/28 05:57:24;;;;;;;;;;;18.30;80.10;;;;;;6121623;23;19984;-74
2022/09/28 05:59:50;;;;;;;;;;;18.30;79.70;;;;;;6096183;23;19916;-74
2022/09/28 06:02:17;;;;;;;;;;;18.30;80.20;;;;;;6122303;23;19912;-75
2022/09/28 06:04:44;;;;;;;;;;;18.30;79.90;;;;;;6121734;23;19952;-76
2022/09/28 06:07:11;;;;;;;;;;;18.20;80.30;;;;;;6095721;23;19904;-74
2022/09/28 06:09:37;;;;;;;;;;;18.30;81.00;;;;;;6096290;23;19904;-74
2022/09/28 06:12:04;;;;;;;;;;;18.30;80.80;;;;;;6119615;23;19913;-74
2022/09/28 06:14:31;;;;;;;;;;;18.30;81.20;;;;;;6122121;23;19941;-74
2022/09/28 06:16:57;;;;;;;;;;;18.30;81.80;;;;;;6121826;23;19912;-74
2022/09/28 06:19:24;;;;;;;;;;;18.30;81.50;;;;;;6121750;23;20031;-74
2022/09/28 06:21:50;;;;;;;;;;;18.30;81.90;;;;;;6121957;23;19912;-73
2022/09/28 06:24:17;;;;;;;;;;;18.20;81.70;;;;;;6121679;23;19935;-74
2022/09/28 06:26:43;;;;;;;;;;;18.20;81.70;;;;;;6121684;23;19917;-74
2022/09/28 06:29:11;;;;;;;;;;;18.20;82.10;;;;;;6121382;23;19932;-76
2022/09/28 06:31:38;;;;;;;;;;;18.20;82.40;;;;;;6121434;23;20420;-77
2022/09/28 06:34:05;;;;;;;;;;;18.20;82.10;;;;;;6122096;23;19967;-74
2022/09/28 06:36:31;;;;;;;;;;;18.20;81.90;;;;;;6121766;23;19914;-76
2022/09/28 06:38:58;;;;;;;;;;;18.20;81.60;;;;;;6122076;23;19920;-77
2022/09/28 06:41:24;;;;;;;;;;;18.20;81.40;;;;;;6121069;23;19952;-74
2022/09/28 06:43:52;;;;;;;;;;;18.20;82.00;;;;;;6121440;23;19905;-76
2022/09/28 06:46:19;;;;;;;;;;;18.20;82.00;;;;;;6121705;23;19905;-76
2022/09/28 06:48:46;;;;;;;;;;;18.20;81.60;;;;;;6121474;23;19976;-77
2022/09/28 06:51:12;;;;;;;;;;;18.20;81.20;;;;;;6123211;23;19905;-74
2022/09/28 06:53:39;;;;;;;;;;;18.20;81.20;;;;;;6123819;23;19927;-72
2022/09/28 06:56:08;;;;;;;;;;;18.20;81.10;;;;;;6124564;23;19908;-72
2022/09/28 06:58:34;;;;;;;;;;;18.20;80.40;;;;;;6123138;23;19982;-75
2022/09/28 07:01:01;;;;;;;;;;;18.10;80.30;;;;;;6125996;23;19971;-76
2022/09/28 07:03:28;;;;;;;;;;;18.10;81.00;;;;;;6101121;23;19901;-75
2022/09/28 07:05:55;;;;;;;;;;;18.10;81.10;;;;;;6127037;23;19901;-75
2022/09/28 07:08:24;;;;;;;;;;;18.00;81.10;;;;;;6126765;23;19980;-76
2022/09/28 07:10:55;;;;;;;;;;;18.00;81.70;;;;;;6126836;23;19988;-76
2022/09/28 07:13:22;;;;;;;;;;;18.00;81.50;;;;;;6101099;23;19915;-75
2022/09/28 07:15:53;;;;;;;;;;;18.00;81.40;;;;;;6077008;23;19900;-76
2022/09/28 07:18:19;;;;;;;;;;;18.00;81.40;;;;;;6126411;23;20339;-76
2022/09/28 07:20:46;;;;;;;;;;;18.00;81.70;;;;;;6126581;23;19904;-76
2022/09/28 07:23:13;;;;;;;;;;;18.00;81.60;;;;;;6126725;23;19905;-78
2022/09/28 07:25:44;;;;;;;;;;;17.90;81.60;;;;;;6122344;23;19921;-76
2022/09/28 07:28:11;;;;;;;;;;;18.00;82.00;;;;;;6123586;23;19928;-75
2022/09/28 07:30:37;;;;;;;;;;;18.00;82.10;;;;;;6097561;23;20013;-75
2022/09/28 07:33:05;;;;;;;;;;;18.00;82.50;;;;;;6123855;23;20360;-77
2022/09/28 07:35:34;;;;;;;;;;;17.90;82.20;;;;;;6121509;23;19907;-76
2022/09/28 07:38:02;;;;;;;;;;;18.00;82.60;;;;;;6098244;23;19908;-76
2022/09/28 07:43:13;;;;;;;;;;;17.90;82.50;;;;;;6123396;23;20077;-75
2022/09/28 07:45:40;;;;;;;;;;;17.90;82.50;;;;;;6123358;23;19901;-74
2022/09/28 07:48:06;;;;;;;;;;;17.90;82.70;;;;;;6096650;23;19940;-73
2022/09/28 07:50:33;;;;;;;;;;;17.90;82.80;;;;;;6123150;23;19909;-73
2022/09/28 07:53:00;;;;;;;;;;;17.80;82.80;;;;;;6123420;23;19912;-76
2022/09/28 07:55:26;;;;;;;;;;;17.80;83.20;;;;;;6123165;23;19904;-76
2022/09/28 07:57:59;;;;;;;;;;;17.80;83.00;;;;;;6123130;23;20236;-76
2022/09/28 08:00:27;;;;;;;;;;;17.80;83.20;;;;;;6122623;23;20376;-76
2022/09/28 08:02:53;;;;;;;;;;;17.70;83.50;;;;;;6123577;23;20264;-75
2022/09/28 08:05:20;;;;;;;;;;;17.70;83.60;;;;;;6097242;23;20236;-74
2022/09/28 08:07:46;;;;;;;;;;;17.70;83.60;;;;;;6122693;23;19901;-74
2022/09/28 08:10:13;;;;;;;;;;;17.70;83.90;;;;;;6123243;23;20314;-74
2022/09/28 08:12:40;;;;;;;;;;;17.70;84.00;;;;;;6122900;23;20187;-74
2022/09/28 08:15:09;;;;;;;;;;;17.70;83.90;;;;;;6123090;23;19905;-74
2022/09/28 08:17:36;;;;;;;;;;;17.70;84.20;;;;;;6096594;23;20015;-74
2022/09/28 08:22:47;;;;;;;;;;;17.70;84.40;;;;;;6121779;23;19911;-75
2022/09/28 08:25:14;;;;;;;;;;;17.60;84.20;;;;;;6121967;23;20252;-75
2022/09/28 08:27:40;;;;;;;;;;;17.60;84.30;;;;;;6122868;23;19948;-75
2022/09/28 08:30:07;;;;;;;;;;;17.60;84.40;;;;;;6123218;23;20252;-79
2022/09/28 08:32:34;;;;;;;;;;;17.50;84.40;;;;;;6095732;23;19900;-80
2022/09/28 08:35:01;;;;;;;;;;;17.50;84.60;;;;;;6121734;23;20372;-77
2022/09/28 08:37:27;;;;;;;;;;;17.60;84.60;;;;;;6118928;23;19912;-77
2022/09/28 08:39:54;;;;;;;;;;;17.50;84.60;;;;;;6121158;23;19921;-75
2022/09/28 08:42:20;;;;;;;;;;;17.60;84.80;;;;;;6095129;23;19905;-74
2022/09/28 08:44:48;;;;;;;;;;;17.60;84.80;;;;;;6121517;23;19905;-76
2022/09/28 08:50:13;;;;;;;;;;;17.50;84.50;;;;;;6099735;23;19912;-74
2022/09/28 08:52:39;;;;;;;;;;;17.60;84.60;;;;;;6095673;23;19904;-76
2022/09/28 08:55:21;;;;;;;;;;;17.60;84.50;;;;;;6096810;23;19909;-76
2022/09/28 08:57:50;;;;;;;;;;;17.60;84.50;;;;;;6122608;23;19907;-75
2022/09/28 09:00:21;;;;;;;;;;;17.50;84.50;;;;;;6095329;23;19908;-74
2022/09/28 09:02:47;;;;;;;;;;;17.50;84.40;;;;;;6095713;23;19904;-75
2022/09/28 09:05:15;;;;;;;;;;;17.50;84.50;;;;;;6121111;23;19901;-75
2022/09/28 09:07:42;;;;;;;;;;;17.50;84.40;;;;;;6120480;23;20062;-75
2022/09/28 09:10:21;;;;;;;;;;;17.50;84.50;;;;;;6122090;23;19905;-76
2022/09/28 09:13:03;;;;;;;;;;;17.50;84.70;;;;;;6120460;23;19920;-76
2022/09/28 09:15:37;;;;;;;;;;;17.40;84.70;;;;;;6120831;23;19905;-76
2022/09/28 09:18:03;;;;;;;;;;;17.40;84.50;;;;;;6095354;23;20056;-73
2022/09/28 09:20:39;;;;;;;;;;;17.40;84.60;;;;;;6120650;23;19905;-73
2022/09/28 09:23:10;;;;;;;;;;;17.50;84.40;;;;;;6121453;23;19909;-77
2022/09/28 09:25:41;;;;;;;;;;;17.40;84.50;;;;;;6121306;23;19964;-79
2022/09/28 09:28:08;;;;;;;;;;;17.40;84.60;;;;;;6097704;23;19900;-78
2022/09/28 09:30:54;;;;;;;;;;;17.40;84.30;;;;;;6123342;23;19932;-79
2022/09/28 09:33:41;;;;;;;;;;;17.40;84.50;;;;;;6099743;23;19905;-79
2022/09/28 09:36:26;;;;;;;;;;;17.40;84.70;;;;;;6123844;23;20371;-78
2022/09/28 09:38:53;;;;;;;;;;;17.40;84.70;;;;;;6125326;23;20417;-78
2022/09/28 09:41:35;;;;;;;;;;;17.50;84.70;;;;;;6124704;23;19940;-78
2022/09/28 09:44:13;;;;;;;;;;;17.50;84.90;;;;;;6125475;23;20321;-78
2022/09/28 09:46:40;;;;;;;;;;;17.40;85.00;;;;;;6098415;23;19907;-77
2022/09/28 09:49:09;;;;;;;;;;;17.40;85.00;;;;;;6125230;23;19905;-78
2022/09/28 09:51:47;;;;;;;;;;;17.40;85.00;;;;;;6125206;23;19908;-78
2022/09/28 09:54:17;;;;;;;;;;;17.30;85.20;;;;;;6099604;23;20331;-78
2022/09/28 09:57:02;;;;;;;;;;;17.30;85.40;;;;;;6124901;23;19936;-77
2022/09/28 09:59:32;;;;;;;;;;;17.20;85.50;;;;;;6096294;23;20005;-77
2022/09/28 10:02:02;;;;;;;;;;;17.20;85.50;;;;;;6071637;23;19904;-72
2022/09/28 10:04:36;;;;;;;;;;;17.20;85.50;;;;;;6121088;23;20372;-73
2022/09/28 10:07:03;;;;;;;;;;;17.20;85.40;;;;;;6069060;23;20331;-72
2022/09/28 10:09:30;;;;;;;;;;;17.20;85.40;;;;;;6120513;23;19916;-75
2022/09/28 10:11:57;;;;;;;;;;;17.20;85.40;;;;;;6095246;23;19900;-75
2022/09/28 10:14:23;;;;;;;;;;;17.20;85.50;;;;;;6122243;23;20346;-77
2022/09/28 10:16:54;;;;;;;;;;;17.20;85.50;;;;;;6095930;23;20289;-79
2022/09/28 10:19:25;;;;;;;;;;;17.20;85.40;;;;;;6095723;23;19944;-78
2022/09/28 10:21:51;;;;;;;;;;;17.20;84.80;;;;;;6095692;23;19901;-78
2022/09/28 10:24:22;;;;;;;;;;;17.20;84.50;;;;;;6096688;23;19924;-77
2022/09/28 10:26:49;;;;;;;;;;;17.20;84.10;;;;;;6098175;23;20404;-75
2022/09/28 10:29:18;;;;;;;;;;;17.10;84.00;;;;;;6124615;23;20362;-82
2022/09/28 10:31:52;;;;;;;;;;;17.10;81.90;;;;;;6097291;23;19952;-79
2022/09/28 10:34:27;;;;;;;;;;;16.90;80.30;;;;;;6124592;23;19905;-81
2022/09/28 10:37:04;;;;;;;;;;;16.80;81.00;;;;;;6123192;23;19937;-72
2022/09/28 10:39:39;;;;;;;;;;;16.70;83.20;;;;;;6123241;23;19908;-76
2022/09/28 10:42:10;;;;;;;;;;;16.30;86.10;;;;;;6123646;23;19932;-71
2022/09/28 10:45:06;;;;;;;;;;;15.90;88.90;;;;;;6097980;23;19901;-70
2022/09/28 10:47:32;;;;;;;;;;;15.60;90.30;;;;;;6120509;23;20240;-72
2022/09/28 10:49:59;;;;;;;;;;;15.30;90.40;;;;;;6097811;23;19952;-74
2022/09/28 10:52:30;;;;;;;;;;;15.10;91.50;;;;;;6097452;23;19912;-74
2022/09/28 10:54:56;;;;;;;;;;;15.00;91.80;;;;;;6097799;23;19911;-72
2022/09/28 10:57:32;;;;;;;;;;;14.90;91.90;;;;;;6123401;23;19940;-70
2022/09/28 10:59:59;;;;;;;;;;;14.90;93.00;;;;;;6122736;23;19913;-69
2022/09/28 11:02:26;;;;;;;;;;;14.80;92.40;;;;;;6122884;23;19909;-71
2022/09/28 11:04:56;;;;;;;;;;;14.80;92.90;;;;;;6123308;23;19999;-70
2022/09/28 11:07:25;;;;;;;;;;;14.70;92.50;;;;;;6120764;23;19947;-70
2022/09/28 11:09:51;;;;;;;;;;;14.70;92.00;;;;;;6123613;23;20324;-71
2022/09/28 11:12:19;;;;;;;;;;;14.70;92.90;;;;;;6123185;23;19928;-73
2022/09/28 11:14:47;;;;;;;;;;;14.80;93.10;;;;;;6097043;23;19905;-72
2022/09/28 11:17:25;;;;;;;;;;;14.80;93.00;;;;;;6123221;23;19905;-71
2022/09/28 11:19:52;;;;;;;;;;;14.70;93.00;;;;;;6097206;23;20304;-75
2022/09/28 11:22:20;;;;;;;;;;;14.70;93.00;;;;;;6096825;23;19908;-71
2022/09/28 11:24:47;;;;;;;;;;;14.70;92.80;;;;;;6122460;23;19909;-74
2022/09/28 11:27:24;;;;;;;;;;;14.70;92.70;;;;;;6122906;23;20256;-73
2022/09/28 11:29:59;;;;;;;;;;;14.70;92.60;;;;;;6098053;23;20321;-74
2022/09/28 11:32:28;;;;;;;;;;;14.60;92.80;;;;;;6097170;23;19901;-74
2022/09/28 11:34:56;;;;;;;;;;;14.50;91.50;;;;;;6095713;23;19912;-77
2022/09/28 11:37:39;;;;;;;;;;;14.60;91.10;;;;;;6096964;23;20633;-74
2022/09/28 11:40:05;;;;;;;;;;;14.60;90.80;;;;;;6095339;23;19947;-69
2022/09/28 11:42:39;;;;;;;;;;;14.60;90.70;;;;;;6122621;23;20239;-69
2022/09/28 11:45:28;;;;;;;;;;;14.70;90.50;;;;;;6122985;23;19973;-68
2022/09/28 11:48:05;;;;;;;;;;;14.60;90.10;;;;;;6121643;23;19904;-69
2022/09/28 11:50:41;;;;;;;;;;;14.60;90.10;;;;;;6097590;23;19928;-69
2022/09/28 11:53:21;;;;;;;;;;;14.70;90.10;;;;;;6096936;23;19905;-69
2022/09/28 11:56:05;;;;;;;;;;;14.70;88.20;;;;;;6122417;23;19909;-69
2022/09/28 11:58:33;;;;;;;;;;;14.70;89.10;;;;;;6122289;23;19917;-68
2022/09/28 12:01:18;;;;;;;;;;;14.80;89.20;;;;;;6096327;23;19912;-69
2022/09/28 12:03:47;;;;;;;;;;;14.80;89.50;;;;;;6122922;23;19932;-69
2022/09/28 12:06:15;;;;;;;;;;;14.70;89.90;;;;;;6123293;23;20380;-70
2022/09/28 12:09:05;;;;;;;;;;;14.80;90.00;;;;;;6119695;23;19912;-70
2022/09/28 12:11:35;;;;;;;;;;;14.70;89.80;;;;;;6106012;23;19908;-71
2022/09/28 12:14:03;;;;;;;;;;;14.80;90.60;;;;;;6096487;23;19901;-71
2022/09/28 12:16:34;;;;;;;;;;;14.70;89.90;;;;;;6096266;23;19948;-72
2022/09/28 12:19:15;;;;;;;;;;;14.80;90.30;;;;;;6095861;23;19913;-72
2022/09/28 12:21:50;;;;;;;;;;;14.70;90.30;;;;;;6096823;23;19911;-70
2022/09/28 12:24:34;;;;;;;;;;;14.70;90.20;;;;;;6121226;23;19931;-74
2022/09/28 12:27:01;;;;;;;;;;;14.80;90.30;;;;;;6120764;23;19988;-70
2022/09/28 12:29:48;;;;;;;;;;;14.80;90.30;;;;;;6121896;23;19908;-70
2022/09/28 12:32:23;;;;;;;;;;;14.70;90.10;;;;;;6101693;23;20044;-71
2022/09/28 12:34:50;;;;;;;;;;;14.70;90.30;;;;;;6122130;23;19912;-71
2022/09/28 12:37:23;;;;;;;;;;;14.70;90.10;;;;;;6122490;23;20236;-70
2022/09/28 12:40:01;;;;;;;;;;;14.70;90.20;;;;;;6095853;23;19919;-72
2022/09/28 12:42:33;;;;;;;;;;;14.70;90.50;;;;;;6122277;23;19930;-74
2022/09/28 12:45:17;;;;;;;;;;;14.70;90.30;;;;;;6122648;23;20404;-74
2022/09/28 12:48:02;;;;;;;;;;;14.80;90.40;;;;;;6120754;23;19913;-72
2022/09/28 12:50:29;;;;;;;;;;;14.80;90.30;;;;;;6121898;23;19916;-72
2022/09/28 12:53:13;;;;;;;;;;;14.80;90.40;;;;;;6122073;23;19911;-73
2022/09/28 12:55:50;;;;;;;;;;;14.70;90.00;;;;;;6120798;23;19911;-72
2022/09/28 12:58:17;;;;;;;;;;;14.70;90.30;;;;;;6095961;23;19913;-72
2022/09/28 13:01:02;;;;;;;;;;;14.80;90.70;;;;;;6096038;23;20252;-71
2022/09/28 13:03:57;;;;;;;;;;;14.70;90.10;;;;;;6120884;23;19904;-70
2022/09/28 13:06:44;;;;;;;;;;;14.70;90.50;;;;;;6097276;23;19992;-71
2022/09/28 13:09:18;;;;;;;;;;;14.70;90.60;;;;;;6121477;23;19912;-71
2022/09/28 13:11:45;;;;;;;;;;;14.80;90.20;;;;;;6121919;23;19901;-71
2022/09/28 13:14:30;;;;;;;;;;;14.80;90.80;;;;;;6122298;23;19904;-70
2022/09/28 13:16:59;;;;;;;;;;;14.80;90.70;;;;;;6122048;23;19916;-70
2022/09/28 13:19:32;;;;;;;;;;;14.80;90.20;;;;;;6120896;23;20008;-71
2022/09/28 13:22:17;;;;;;;;;;;14.80;90.40;;;;;;6121430;23;20411;-71
2022/09/28 13:24:43;;;;;;;;;;;14.80;90.70;;;;;;6121333;23;20014;-71
2022/09/28 13:27:12;;;;;;;;;;;14.80;90.90;;;;;;6096312;23;19900;-71
2022/09/28 13:29:39;;;;;;;;;;;14.80;90.90;;;;;;6095609;23;19904;-70
2022/09/28 13:32:06;;;;;;;;;;;14.80;90.70;;;;;;6094843;23;19948;-71
2022/09/28 13:34:34;;;;;;;;;;;14.80;90.80;;;;;;6095356;23;19905;-71
2022/09/28 13:37:08;;;;;;;;;;;14.80;90.80;;;;;;6095951;23;19901;-72
2022/09/28 13:39:36;;;;;;;;;;;14.80;90.60;;;;;;6096208;23;19912;-72
2022/09/28 13:42:03;;;;;;;;;;;14.80;90.20;;;;;;6123136;23;19901;-70
2022/09/28 13:44:48;;;;;;;;;;;14.80;90.10;;;;;;6099149;23;19983;-71
2022/09/28 13:47:44;;;;;;;;;;;14.80;90.10;;;;;;6098755;23;19901;-72
2022/09/28 13:50:19;;;;;;;;;;;14.80;90.10;;;;;;6099466;23;19928;-72
2022/09/28 13:52:49;;;;;;;;;;;14.70;90.10;;;;;;6099186;23;19924;-72
2022/09/28 13:55:18;;;;;;;;;;;14.80;89.80;;;;;;6124486;23;19928;-72
2022/09/28 13:57:48;;;;;;;;;;;14.80;89.60;;;;;;6124185;23;19928;-72
2022/09/28 14:00:26;;;;;;;;;;;14.80;89.70;;;;;;6098642;23;19909;-71
2022/09/28 14:03:00;;;;;;;;;;;14.80;89.20;;;;;;6098868;23;19971;-72
2022/09/28 14:05:33;;;;;;;;;;;14.80;89.30;;;;;;6125462;23;19905;-72
2022/09/28 14:08:09;;;;;;;;;;;14.80;89.00;;;;;;6125293;23;19983;-72
2022/09/28 14:10:46;;;;;;;;;;;14.70;88.80;;;;;;6125153;23;20273;-72
2022/09/28 14:13:12;;;;;;;;;;;14.70;88.70;;;;;;6124789;23;20220;-71
2022/09/28 14:43:33;;;;;;;;;;;14.70;87.40;;;;;;6096825;23;19949;-71
2022/09/28 14:46:22;;;;;;;;;;;14.70;87.10;;;;;;6095215;23;19916;-72
2022/09/28 14:48:51;;;;;;;;;;;14.70;87.50;;;;;;6079408;23;20000;-72
2022/09/28 14:51:28;;;;;;;;;;;14.70;87.30;;;;;;6070636;23;19901;-71
2022/09/28 14:54:01;;;;;;;;;;;14.70;87.60;;;;;;6095563;23;19902;-71
2022/09/28 14:56:28;;;;;;;;;;;14.70;87.30;;;;;;6095665;23;19901;-72
2022/09/28 14:58:55;;;;;;;;;;;14.70;87.20;;;;;;6095283;23;19909;-71
2022/09/28 15:01:23;;;;;;;;;;;14.70;86.20;;;;;;6069649;23;20237;-71
2022/09/28 15:03:56;;;;;;;;;;;14.60;85.50;;;;;;6095474;23;20248;-71
2022/09/28 15:06:23;;;;;;;;;;;14.60;84.90;;;;;;6070291;23;19982;-72
2022/09/28 15:08:49;;;;;;;;;;;14.60;83.00;;;;;;6094605;23;20222;-72
2022/09/28 15:11:23;;;;;;;;;;;14.60;82.50;;;;;;6095425;23;20261;-72
2022/09/28 15:13:52;;;;;;;;;;;14.70;81.30;;;;;;6070966;23;20248;-72
2022/09/28 15:16:22;;;;;;;;;;;14.70;82.90;;;;;;6096759;23;20123;-72
2022/09/28 15:19:03;;;;;;;;;;;14.70;83.10;;;;;;6070867;23;19913;-71
2022/09/28 15:21:39;;;;;;;;;;;14.70;83.20;;;;;;6096479;23;19984;-72
2022/09/28 15:24:25;;;;;;;;;;;14.60;83.10;;;;;;6096677;23;19976;-72
2022/09/28 15:26:52;;;;;;;;;;;14.70;84.10;;;;;;6096460;23;19925;-72
2022/09/28 15:29:19;;;;;;;;;;;14.70;83.30;;;;;;6096842;23;20288;-72
2022/09/28 15:31:45;;;;;;;;;;;14.60;83.90;;;;;;6097114;23;19908;-71
2022/09/28 15:37:16;;;;;;;;;;;14.60;85.40;;;;;;6096884;23;19955;-72
2022/09/28 15:39:47;;;;;;;;;;;14.50;84.80;;;;;;6071760;23;19909;-72
2022/09/28 15:42:15;;;;;;;;;;;14.60;86.10;;;;;;6109145;23;20061;-71
2022/09/28 15:44:43;;;;;;;;;;;14.50;86.60;;;;;;6125534;23;20334;-71
2022/09/28 15:47:22;;;;;;;;;;;14.40;86.50;;;;;;6125883;23;19900;-72
2022/09/28 15:50:09;;;;;;;;;;;14.30;86.90;;;;;;6101041;23;19927;-71
2022/09/28 15:52:45;;;;;;;;;;;14.30;87.70;;;;;;6105840;23;19905;-73
2022/09/28 15:55:31;;;;;;;;;;;14.20;88.30;;;;;;6126623;23;19972;-73
2022/09/28 15:58:25;;;;;;;;;;;14.20;88.50;;;;;;6125658;23;19901;-73
2022/09/28 16:01:11;;;;;;;;;;;14.10;89.40;;;;;;6120163;23;19948;-74
2022/09/28 16:03:38;;;;;;;;;;;13.90;89.80;;;;;;6125686;23;19900;-73
2022/09/28 16:06:05;;;;;;;;;;;13.80;90.20;;;;;;6126317;23;19928;-72
2022/09/28 16:08:35;;;;;;;;;;;13.70;90.90;;;;;;6099798;23;19956;-73
2022/09/28 16:11:20;;;;;;;;;;;13.70;91.70;;;;;;6125274;23;19908;-72
2022/09/28 16:13:56;;;;;;;;;;;13.70;92.20;;;;;;6125553;23;19959;-72
2022/09/28 16:16:26;;;;;;;;;;;13.70;92.50;;;;;;6125255;23;19955;-72
2022/09/28 16:18:54;;;;;;;;;;;13.70;92.60;;;;;;6100076;23;19919;-72
2022/09/28 16:21:54;;;;;;;;;;;13.70;92.80;;;;;;6125578;23;19905;-72
2022/09/28 16:24:24;;;;;;;;;;;13.70;93.00;;;;;;6063219;23;19900;-72
2022/09/28 16:26:55;;;;;;;;;;;13.70;93.40;;;;;;6100376;23;19929;-72
2022/09/28 16:29:26;;;;;;;;;;;13.70;93.50;;;;;;6075328;23;19901;-72
2022/09/28 16:31:52;;;;;;;;;;;13.60;93.70;;;;;;6125367;23;20343;-71
2022/09/28 16:34:19;;;;;;;;;;;13.60;93.60;;;;;;6125577;23;19975;-71
2022/09/28 16:36:47;;;;;;;;;;;13.60;93.90;;;;;;6125743;23;19904;-71
2022/09/28 16:39:15;;;;;;;;;;;13.50;93.90;;;;;;6124813;23;19995;-71
2022/09/28 16:41:43;;;;;;;;;;;13.60;94.00;;;;;;6125436;23;19908;-71
2022/09/28 16:44:20;;;;;;;;;;;13.60;94.00;;;;;;6099924;23;20027;-72